Terminal Aerodrome Forecast
Issued by NWS Grand Forks, ND

Home | Current Version | Previous Version | Graphics & Text | Print | Product List | Glossary On
Versions: 1 2 3 4 5 6 7 8 9 10 11 12 13
427
FTUS43 KFGF 290520
TAFFAR
TAF
KFAR 290520Z 2906/3006 03004KT P6SM FEW250
     FM292000 16004KT P6SM SCT100
     FM292100 16004KT P6SM BKN100=

USA.gov is the U.S. government's official web portal to all federal, state and local government web resources and services.